Terminal Aerodrome Forecast
Issued by NWS

Home | Current Version | Previous Version | Text Only | Print | Product List | Glossary On
Versions: 1 2 3 4 5 6 7 8 9 10 11 12 13 14 15 16 17 18
175
FTUS44 KCRP 261737
TAFALI
TAF
KALI 261737Z 2618/2718 16015G22KT P6SM SCT035
     FM270300 17010KT P6SM SKC
     FM270700 16006KT 2SM BR SCT005
      TEMPO 2709/2712 1/2SM FG
     FM271500 16008KT P6SM SCT020=

USA.gov is the U.S. government's official web portal to all federal, state and local government web resources and services.